JX105 Flashcards Preview

Weather 1 > JX105 > Flashcards

Flashcards in JX105 Deck (9)
Loading flashcards...
1

Using the METAR shown, what is the reported ceiling for KLUF?

METAR KLUF 2157Z 16009KT 10SM SCT015 BKN027 BKN200 04/M06 A2999 RMK SLP190

2700 feet

2

What is the minimum sky coverage constituting a ceiling?

5/8 to 7/8

3

Given the following observation sequence, what is the ceiling at KRND?
KRND 1356Z 18005KT 7SM SCT025 BKN050 OVC140 28/26 A3006

5000 feet

4

Using the SPECI below, what is the most detailed visibility shown?
SPECI KMIB 0123Z 01023G35 1/2SM R11/1200FT -BLSN SCT000 OVC005 RMK VIS3/8V5/8 BLSN SCT000 CIG 004V006

3/8 to 5/8 SM

5

Using the METAR shown, what is the dew point for KLUF?
METAR KLUF 2157Z 16009KT 10SM BKN027 BKN200 04/M06 A2999 RMK SLP190

-4° C

6

Using the METAR shown, what is the altimeter setting for KCBM?
METAR KCBM 291158Z AUTO 14004KT 10SM FEW080 20/18 A3001 RMK AO2 SLP163

3001

7

Using the METAR shown, what is the temperature for KLUF?
METAR KLUF 2157Z 16009KT 10SM SCT015 BKN027 BKN200 04/M06 A2999 RMK SLP190

4° C

8

Using the SPECI shown, what are the winds at KMIB? SPECI KMIB 0123Z 01023G35 1/2SM R11/1200FT –BLSN SCT000 OVC005 RMK VIS3/8V5/8 BLSN SCT000 CIG 004V006

10° at 23 knots, gusting to 35 knots

9

Using the SPECI shown, what is the Runway Visual Range (RVR) at KMIB?
SPECI KMIB 0123Z 01023G35 1/2SM R11/1200FT -BLSN SCT000 OVC005 RMK VIS3/8V5/8 BLSN SCT000 CIG 004V006

1200 feet for Runway 11